<?xml version="1.0" encoding="UTF-8" standalone="no" ?>
<gpx xmlns="http://www.topografix.com/GPX/1/1" xmlns:xsi="http://www.w3.org/2001/XMLSchema-instance" xsi:schemaLocation="http://www.topografix.com/GPX/1/1 http://www.topografix.com/GPX/1/1/gpx.xsd" version="1.1" creator="VisuGPX - https://www.visugpx.com">
  <metadata>
    <name>GR8S3_LesSableStMichelHerm</name>
    <desc><![CDATA[gnerando idor: 12420312_12420320_12420354_12420365]]></desc>
  </metadata>
  <trk>
    <name><![CDATA[GR8S3J4_LafauteStMichelH_20.8km-12420354]]></name>
    <extensions>
      <line xmlns="http://www.topografix.com/GPX/gpx_style/0/2">
        <color>00FFFF</color>
        <width>4</width>
      </line>
    </extensions>
    <trkseg>
      <trkpt lat="46.33421" lon="-1.3325">
        <ele>5</ele>
        <time>2023-10-30T14:37:46Z</time>
      </trkpt>
      <trkpt lat="46.33222" lon="-1.32984">
        <ele>3</ele>
        <time>2023-10-30T14:43:47Z</time>
      </trkpt>
      <trkpt lat="46.33234" lon="-1.32906">
        <ele>4</ele>
        <time>2023-10-30T14:45:01Z</time>
      </trkpt>
      <trkpt lat="46.33237" lon="-1.32574">
        <ele>2</ele>
        <time>2023-10-30T14:50:07Z</time>
      </trkpt>
      <trkpt lat="46.33255" lon="-1.32297">
        <ele>4</ele>
        <time>2023-10-30T14:54:23Z</time>
      </trkpt>
      <trkpt lat="46.33279" lon="-1.32164">
        <ele>4</ele>
        <time>2023-10-30T14:56:30Z</time>
      </trkpt>
      <trkpt lat="46.33341" lon="-1.31952">
        <ele>2</ele>
        <time>2023-10-30T15:00:02Z</time>
      </trkpt>
      <trkpt lat="46.33326" lon="-1.31924">
        <ele>2</ele>
        <time>2023-10-30T15:00:35Z</time>
      </trkpt>
      <trkpt lat="46.33535" lon="-1.3154">
        <ele>2</ele>
        <time>2023-10-30T15:08:05Z</time>
      </trkpt>
      <trkpt lat="46.33456" lon="-1.31362">
        <ele>4</ele>
        <time>2023-10-30T15:11:20Z</time>
      </trkpt>
      <trkpt lat="46.33443" lon="-1.3131">
        <ele>4</ele>
        <time>2023-10-30T15:12:11Z</time>
      </trkpt>
      <trkpt lat="46.33382" lon="-1.31271">
        <ele>3</ele>
        <time>2023-10-30T15:13:40Z</time>
      </trkpt>
      <trkpt lat="46.33289" lon="-1.31151">
        <ele>1</ele>
        <time>2023-10-30T15:16:26Z</time>
      </trkpt>
      <trkpt lat="46.33279" lon="-1.31115">
        <ele>1.9</ele>
        <time>2023-10-30T15:17:02Z</time>
      </trkpt>
      <trkpt lat="46.33251" lon="-1.31057">
        <ele>3.9</ele>
        <time>2023-10-30T15:18:07Z</time>
      </trkpt>
      <trkpt lat="46.33172" lon="-1.3084">
        <ele>2</ele>
        <time>2023-10-30T15:21:53Z</time>
      </trkpt>
      <trkpt lat="46.33136" lon="-1.30817">
        <ele>2</ele>
        <time>2023-10-30T15:22:46Z</time>
      </trkpt>
      <trkpt lat="46.33154" lon="-1.30784">
        <ele>3</ele>
        <time>2023-10-30T15:23:25Z</time>
      </trkpt>
      <trkpt lat="46.33139" lon="-1.30759">
        <ele>3</ele>
        <time>2023-10-30T15:23:55Z</time>
      </trkpt>
      <trkpt lat="46.33182" lon="-1.30718">
        <ele>4</ele>
        <time>2023-10-30T15:25:04Z</time>
      </trkpt>
      <trkpt lat="46.33089" lon="-1.30559">
        <ele>1</ele>
        <time>2023-10-30T15:28:16Z</time>
      </trkpt>
      <trkpt lat="46.32969" lon="-1.30394">
        <ele>2</ele>
        <time>2023-10-30T15:31:57Z</time>
      </trkpt>
      <trkpt lat="46.32996" lon="-1.30353">
        <ele>3</ele>
        <time>2023-10-30T15:32:49Z</time>
      </trkpt>
      <trkpt lat="46.32968" lon="-1.30312">
        <ele>3</ele>
        <time>2023-10-30T15:33:42Z</time>
      </trkpt>
      <trkpt lat="46.32895" lon="-1.30158">
        <ele>4</ele>
        <time>2023-10-30T15:36:34Z</time>
      </trkpt>
      <trkpt lat="46.32736" lon="-1.29928">
        <ele>3</ele>
        <time>2023-10-30T15:41:34Z</time>
      </trkpt>
      <trkpt lat="46.32736" lon="-1.29896">
        <ele>3</ele>
        <time>2023-10-30T15:42:04Z</time>
      </trkpt>
      <trkpt lat="46.32439" lon="-1.296">
        <ele>4</ele>
        <time>2023-10-30T15:50:05Z</time>
      </trkpt>
      <trkpt lat="46.32277" lon="-1.294">
        <ele>3</ele>
        <time>2023-10-30T15:54:49Z</time>
      </trkpt>
      <trkpt lat="46.322" lon="-1.2934">
        <ele>3</ele>
        <time>2023-10-30T15:56:45Z</time>
      </trkpt>
      <trkpt lat="46.3204" lon="-1.29242">
        <ele>4</ele>
        <time>2023-10-30T16:00:37Z</time>
      </trkpt>
      <trkpt lat="46.32003" lon="-1.29205">
        <ele>5</ele>
        <time>2023-10-30T16:01:37Z</time>
      </trkpt>
      <trkpt lat="46.31981" lon="-1.29218">
        <ele>4</ele>
        <time>2023-10-30T16:02:09Z</time>
      </trkpt>
      <trkpt lat="46.31938" lon="-1.29184">
        <ele>3</ele>
        <time>2023-10-30T16:03:14Z</time>
      </trkpt>
      <trkpt lat="46.31558" lon="-1.28658">
        <ele>3</ele>
        <time>2023-10-30T16:14:56Z</time>
      </trkpt>
      <trkpt lat="46.31532" lon="-1.28632">
        <ele>3</ele>
        <time>2023-10-30T16:15:38Z</time>
      </trkpt>
      <trkpt lat="46.31453" lon="-1.28525">
        <ele>3</ele>
        <time>2023-10-30T16:18:02Z</time>
      </trkpt>
      <trkpt lat="46.3142" lon="-1.28523">
        <ele>3</ele>
        <time>2023-10-30T16:18:47Z</time>
      </trkpt>
      <trkpt lat="46.31391" lon="-1.28497">
        <ele>3</ele>
        <time>2023-10-30T16:19:32Z</time>
      </trkpt>
      <trkpt lat="46.31366" lon="-1.2849">
        <ele>3</ele>
        <time>2023-10-30T16:20:06Z</time>
      </trkpt>
      <trkpt lat="46.3129" lon="-1.28441">
        <ele>2</ele>
        <time>2023-10-30T16:21:57Z</time>
      </trkpt>
      <trkpt lat="46.31274" lon="-1.28458">
        <ele>2</ele>
        <time>2023-10-30T16:22:24Z</time>
      </trkpt>
      <trkpt lat="46.312" lon="-1.28445">
        <ele>2</ele>
        <time>2023-10-30T16:24:03Z</time>
      </trkpt>
      <trkpt lat="46.31232" lon="-1.28596">
        <ele>1</ele>
        <time>2023-10-30T16:26:29Z</time>
      </trkpt>
      <trkpt lat="46.3122" lon="-1.28628">
        <ele>1</ele>
        <time>2023-10-30T16:27:02Z</time>
      </trkpt>
      <trkpt lat="46.31182" lon="-1.28555">
        <ele>1</ele>
        <time>2023-10-30T16:28:26Z</time>
      </trkpt>
      <trkpt lat="46.31171" lon="-1.28467">
        <ele>2</ele>
        <time>2023-10-30T16:29:49Z</time>
      </trkpt>
      <trkpt lat="46.31149" lon="-1.28398">
        <ele>2</ele>
        <time>2023-10-30T16:30:59Z</time>
      </trkpt>
      <trkpt lat="46.31133" lon="-1.28332">
        <ele>2</ele>
        <time>2023-10-30T16:32:03Z</time>
      </trkpt>
      <trkpt lat="46.31054" lon="-1.28192">
        <ele>3</ele>
        <time>2023-10-30T16:34:50Z</time>
      </trkpt>
      <trkpt lat="46.31034" lon="-1.28119">
        <ele>3</ele>
        <time>2023-10-30T16:36:02Z</time>
      </trkpt>
      <trkpt lat="46.30986" lon="-1.28035">
        <ele>2</ele>
        <time>2023-10-30T16:37:43Z</time>
      </trkpt>
      <trkpt lat="46.30949" lon="-1.2798">
        <ele>1</ele>
        <time>2023-10-30T16:38:54Z</time>
      </trkpt>
      <trkpt lat="46.30799" lon="-1.27611">
        <ele>2</ele>
        <time>2023-10-30T16:45:28Z</time>
      </trkpt>
      <trkpt lat="46.30617" lon="-1.27493">
        <ele>1</ele>
        <time>2023-10-30T16:49:54Z</time>
      </trkpt>
      <trkpt lat="46.29754" lon="-1.26049">
        <ele>1</ele>
        <time>2023-10-30T17:19:15Z</time>
      </trkpt>
      <trkpt lat="46.29765" lon="-1.25821">
        <ele>2.9</ele>
        <time>2023-10-30T17:22:45Z</time>
      </trkpt>
      <trkpt lat="46.29788" lon="-1.25802">
        <ele>3.5</ele>
        <time>2023-10-30T17:23:21Z</time>
      </trkpt>
      <trkpt lat="46.29877" lon="-1.25778">
        <ele>2.4</ele>
        <time>2023-10-30T17:25:22Z</time>
      </trkpt>
      <trkpt lat="46.30301" lon="-1.25446">
        <ele>4</ele>
        <time>2023-10-30T17:36:05Z</time>
      </trkpt>
      <trkpt lat="46.3034" lon="-1.2548">
        <ele>3</ele>
        <time>2023-10-30T17:37:06Z</time>
      </trkpt>
      <trkpt lat="46.30376" lon="-1.25465">
        <ele>3</ele>
        <time>2023-10-30T17:37:56Z</time>
      </trkpt>
      <trkpt lat="46.30423" lon="-1.25418">
        <ele>4</ele>
        <time>2023-10-30T17:39:12Z</time>
      </trkpt>
      <trkpt lat="46.30439" lon="-1.25364">
        <ele>4</ele>
        <time>2023-10-30T17:40:06Z</time>
      </trkpt>
      <trkpt lat="46.30411" lon="-1.25291">
        <ele>6</ele>
        <time>2023-10-30T17:41:23Z</time>
      </trkpt>
      <trkpt lat="46.30414" lon="-1.25244">
        <ele>5</ele>
        <time>2023-10-30T17:42:07Z</time>
      </trkpt>
      <trkpt lat="46.30496" lon="-1.24941">
        <ele>5</ele>
        <time>2023-10-30T17:47:07Z</time>
      </trkpt>
      <trkpt lat="46.30509" lon="-1.24637">
        <ele>5</ele>
        <time>2023-10-30T17:51:47Z</time>
      </trkpt>
      <trkpt lat="46.30583" lon="-1.24319">
        <ele>5</ele>
        <time>2023-10-30T17:56:57Z</time>
      </trkpt>
      <trkpt lat="46.30577" lon="-1.24008">
        <ele>2</ele>
        <time>2023-10-30T18:01:43Z</time>
      </trkpt>
      <trkpt lat="46.30608" lon="-1.23832">
        <ele>1</ele>
        <time>2023-10-30T18:04:31Z</time>
      </trkpt>
      <trkpt lat="46.30668" lon="-1.23841">
        <ele>1.7</ele>
        <time>2023-10-30T18:05:51Z</time>
      </trkpt>
      <trkpt lat="46.30749" lon="-1.2392">
        <ele>-1</ele>
        <time>2023-10-30T18:08:02Z</time>
      </trkpt>
      <trkpt lat="46.30838" lon="-1.24025">
        <ele>-1</ele>
        <time>2023-10-30T18:10:35Z</time>
      </trkpt>
      <trkpt lat="46.30976" lon="-1.24317">
        <ele>1</ele>
        <time>2023-10-30T18:16:01Z</time>
      </trkpt>
      <trkpt lat="46.31546" lon="-1.24474">
        <ele>1</ele>
        <time>2023-10-30T18:28:55Z</time>
      </trkpt>
      <trkpt lat="46.3261" lon="-1.24583">
        <ele>2</ele>
        <time>2023-10-30T18:52:39Z</time>
      </trkpt>
      <trkpt lat="46.32867" lon="-1.24321">
        <ele>1</ele>
        <time>2023-10-30T18:59:38Z</time>
      </trkpt>
      <trkpt lat="46.32917" lon="-1.24227">
        <ele>2</ele>
        <time>2023-10-30T19:01:28Z</time>
      </trkpt>
      <trkpt lat="46.32969" lon="-1.24274">
        <ele>2</ele>
        <time>2023-10-30T19:02:49Z</time>
      </trkpt>
      <trkpt lat="46.34406" lon="-1.24783">
        <ele>2</ele>
        <time>2023-10-30T19:35:43Z</time>
      </trkpt>
      <trkpt lat="46.34516" lon="-1.24801">
        <ele>2</ele>
        <time>2023-10-30T19:38:11Z</time>
      </trkpt>
      <trkpt lat="46.35088" lon="-1.24756">
        <ele>4</ele>
        <time>2023-10-30T19:50:56Z</time>
      </trkpt>
      <trkpt lat="46.35271" lon="-1.24984">
        <ele>8</ele>
        <time>2023-10-30T19:56:18Z</time>
      </trkpt>
      <trkpt lat="46.35014" lon="-1.25338">
        <ele>5</ele>
        <time>2023-10-30T20:04:11Z</time>
      </trkpt>
      <trkpt lat="46.35307" lon="-1.25517">
        <ele>14</ele>
        <time>2023-10-30T20:11:15Z</time>
      </trkpt>
      <trkpt lat="46.35275" lon="-1.2567">
        <ele>15</ele>
        <time>2023-10-30T20:13:43Z</time>
      </trkpt>
      <trkpt lat="46.35426" lon="-1.25971">
        <ele>4</ele>
        <time>2023-10-30T20:19:25Z</time>
      </trkpt>
      <trkpt lat="46.3538" lon="-1.26068">
        <ele>3</ele>
        <time>2023-10-30T20:21:14Z</time>
      </trkpt>
      <trkpt lat="46.35993" lon="-1.27686">
        <ele>-1</ele>
        <time>2023-10-30T20:49:34Z</time>
      </trkpt>
      <trkpt lat="46.36377" lon="-1.27354">
        <ele>1</ele>
        <time>2023-10-30T20:59:30Z</time>
      </trkpt>
      <trkpt lat="46.36377" lon="-1.27257">
        <ele>1</ele>
        <time>2023-10-30T21:01:00Z</time>
      </trkpt>
      <trkpt lat="46.36159" lon="-1.27038">
        <ele>1</ele>
        <time>2023-10-30T21:06:54Z</time>
      </trkpt>
      <trkpt lat="46.36088" lon="-1.26594">
        <ele>-1</ele>
        <time>2023-10-30T21:13:53Z</time>
      </trkpt>
      <trkpt lat="46.35962" lon="-1.26436">
        <ele>1</ele>
        <time>2023-10-30T21:17:36Z</time>
      </trkpt>
      <trkpt lat="46.35877" lon="-1.26038">
        <ele>2</ele>
        <time>2023-10-30T21:23:59Z</time>
      </trkpt>
      <trkpt lat="46.357" lon="-1.25626">
        <ele>5</ele>
        <time>2023-10-30T21:31:26Z</time>
      </trkpt>
      <trkpt lat="46.35753" lon="-1.25497">
        <ele>8</ele>
        <time>2023-10-30T21:33:45Z</time>
      </trkpt>
    </trkseg>
  </trk>
</gpx>